Airport details for: LOWG (Austria)

Metar

LOWG 191020Z VRB02KT CAVOK 17/11 Q1017 NOSIG

General details

ICAO: LOWG
IATA: GRZ
Name (city): Graz
Major:
Country: Austria
vACC: vACC Austria
Description:

http://www.vacc-austria.org/airports/LOWG

Scenery links:
FS9 scenery: Download
FSX/P3D scenery: Download
XP scenery: Download
Elevation: 1120 ft.
Transition altitude: 4000 ft.
MSA: 9800 ft.
Latitude: 46.993056
Longitude: 15.439167
LOWG Charts
LOWG Notams
LOWG Online stations

Runways

Number Course Length Elevation Lat Lon ILS ILS freq ILS FAC GP
17C 166° 9843ft / 3000 m 1115ft 47.002006 15.436614 - - 3.0°
17L 166° 2100ft / 640 m 1093ft 46.993224 15.437747 - - 3.0°
17R 166° 2493ft / 760 m 1112ft 46.993277 15.437688 - - 3.0°
35C 346° 9843ft / 3000 m 1088ft 46.977786 15.443281 110.9 346° 3.0°
35L 346° 2493ft / 760 m 1102ft 46.993208 15.437699 - - 3.0°
35R 346° 2100ft / 640 m 1106ft 46.993173 15.43777 - - 3.0°